createdAt,value
2018-07-24T00:01:32.926Z,20.59
2018-07-24T00:04:01.299Z,20.56
2018-07-24T00:06:29.695Z,20.55
2018-07-24T00:08:58.070Z,20.54
2018-07-24T00:11:26.475Z,20.52
2018-07-24T00:13:54.842Z,20.53
2018-07-24T00:16:23.230Z,20.52
2018-07-24T00:18:51.622Z,20.50
2018-07-24T00:21:20.018Z,20.47
2018-07-24T00:23:48.408Z,20.44
2018-07-24T00:26:16.819Z,20.42
2018-07-24T00:28:45.194Z,20.39
2018-07-24T00:31:13.599Z,20.36
2018-07-24T00:33:41.971Z,20.33
2018-07-24T00:36:10.365Z,20.33
2018-07-24T00:38:38.740Z,20.31
2018-07-24T00:41:07.158Z,20.28
2018-07-24T00:43:35.530Z,20.26
2018-07-24T00:46:03.922Z,20.22
2018-07-24T00:48:32.290Z,20.20
2018-07-24T00:51:00.694Z,20.17
2018-07-24T00:53:29.064Z,20.14
2018-07-24T00:55:57.490Z,20.12
2018-07-24T00:58:25.857Z,20.10
2018-07-24T01:00:54.261Z,20.07
2018-07-24T01:03:22.626Z,20.03
2018-07-24T01:05:51.010Z,20.02
2018-07-24T01:08:19.377Z,20.00
2018-07-24T01:10:47.791Z,19.99
2018-07-24T01:13:16.162Z,19.97
2018-07-24T01:15:44.525Z,19.94
2018-07-24T01:18:12.933Z,19.94
2018-07-24T01:20:41.296Z,19.91
2018-07-24T01:23:09.705Z,19.89
2018-07-24T01:25:38.077Z,19.87
2018-07-24T01:28:06.465Z,19.87
2018-07-24T01:30:34.821Z,19.85
2018-07-24T01:33:03.205Z,19.86
2018-07-24T01:35:31.561Z,19.87
2018-07-24T01:37:59.954Z,19.85
2018-07-24T01:40:28.313Z,19.87
2018-07-24T01:42:56.706Z,19.89
2018-07-24T01:45:25.080Z,19.89
2018-07-24T01:47:53.482Z,19.90
2018-07-24T01:50:21.850Z,19.92
2018-07-24T01:52:50.245Z,19.93
2018-07-24T01:55:18.605Z,19.94
2018-07-24T01:57:46.997Z,19.95
2018-07-24T02:00:16.953Z,19.97
2018-07-24T02:02:45.351Z,19.99
2018-07-24T02:05:14.017Z,20.00
2018-07-24T02:07:43.045Z,20.01
2018-07-24T02:10:11.446Z,20.01
2018-07-24T02:12:40.047Z,20.02
2018-07-24T02:15:08.715Z,20.03
2018-07-24T02:17:37.491Z,20.04
2018-07-24T02:20:06.138Z,20.05
2018-07-24T02:22:34.651Z,20.04
2018-07-24T02:25:03.071Z,20.05
2018-07-24T02:27:31.461Z,20.02
2018-07-24T02:29:59.839Z,20.01
2018-07-24T02:32:28.229Z,20.00
2018-07-24T02:34:56.598Z,19.98
2018-07-24T02:37:24.989Z,19.96
2018-07-24T02:39:53.366Z,19.93
2018-07-24T02:42:21.781Z,19.90
2018-07-24T02:44:50.158Z,19.87
2018-07-24T02:47:18.550Z,19.84
2018-07-24T02:49:46.920Z,19.80
2018-07-24T02:52:15.308Z,19.78
2018-07-24T02:54:44.518Z,19.75
2018-07-24T02:57:12.909Z,19.71
2018-07-24T02:59:41.273Z,19.68
2018-07-24T03:02:09.839Z,19.67
2018-07-24T03:04:38.243Z,19.64
2018-07-24T03:07:06.633Z,19.61
2018-07-24T03:09:35.009Z,19.58
2018-07-24T03:12:03.394Z,19.56
2018-07-24T03:14:31.758Z,19.52
2018-07-24T03:17:00.128Z,19.50
2018-07-24T03:19:28.546Z,19.49
2018-07-24T03:21:56.928Z,19.47
2018-07-24T03:24:25.321Z,19.45
2018-07-24T03:26:53.685Z,19.46
2018-07-24T03:29:22.213Z,19.45
2018-07-24T03:31:50.585Z,19.44
2018-07-24T03:34:18.975Z,19.45
2018-07-24T03:36:48.969Z,19.45
2018-07-24T03:39:17.437Z,19.45
2018-07-24T03:41:45.812Z,19.48
2018-07-24T03:44:14.197Z,19.48
2018-07-24T03:46:42.568Z,19.49
2018-07-24T03:49:10.961Z,19.49
2018-07-24T03:51:39.474Z,19.50
2018-07-24T03:54:07.858Z,19.51
2018-07-24T03:56:36.221Z,19.53
2018-07-24T03:59:04.610Z,19.56
2018-07-24T04:01:33.056Z,19.58
2018-07-24T04:04:01.467Z,19.62
2018-07-24T04:06:29.842Z,19.64
2018-07-24T04:08:58.229Z,19.72
2018-07-24T04:11:26.711Z,19.92
2018-07-24T04:13:55.101Z,20.08
2018-07-24T04:16:23.479Z,20.27
2018-07-24T04:18:51.889Z,20.43
2018-07-24T04:21:20.515Z,20.60
2018-07-24T04:23:49.735Z,20.77
2018-07-24T04:26:18.138Z,20.96
2018-07-24T04:28:46.997Z,21.15
2018-07-24T04:31:15.766Z,21.43
2018-07-24T04:33:44.601Z,21.71
2018-07-24T04:36:12.966Z,21.95
2018-07-24T04:38:41.395Z,22.11
2018-07-24T04:41:09.894Z,22.35
2018-07-24T04:43:38.295Z,22.51
2018-07-24T04:46:06.674Z,22.62
2018-07-24T04:48:35.128Z,22.72
2018-07-24T04:51:03.489Z,22.76
2018-07-24T04:53:31.885Z,22.84
2018-07-24T04:56:00.480Z,22.89
2018-07-24T04:58:28.865Z,22.89
2018-07-24T05:00:57.248Z,22.89
2018-07-24T05:03:25.647Z,22.91
2018-07-24T05:05:54.042Z,22.90
2018-07-24T05:08:22.465Z,22.91
2018-07-24T05:10:50.835Z,22.91
2018-07-24T05:13:19.227Z,22.92
2018-07-24T05:15:47.603Z,22.93
2018-07-24T05:18:16.017Z,22.94
2018-07-24T05:20:44.464Z,23.00
2018-07-24T05:23:12.841Z,23.03
2018-07-24T05:25:41.256Z,23.06
2018-07-24T05:28:09.621Z,23.10
2018-07-24T05:30:38.021Z,23.13
2018-07-24T05:33:06.547Z,23.16
2018-07-24T05:35:34.923Z,23.22
2018-07-24T05:38:03.289Z,23.25
2018-07-24T05:40:31.674Z,23.29
2018-07-24T05:43:00.053Z,23.36
2018-07-24T05:45:28.437Z,23.42
2018-07-24T05:47:56.820Z,23.46
2018-07-24T05:50:25.201Z,23.51
2018-07-24T05:52:53.586Z,23.57
2018-07-24T05:55:21.989Z,23.64
2018-07-24T05:57:50.355Z,23.73
2018-07-24T06:00:18.742Z,23.81
2018-07-24T06:02:47.114Z,23.91
2018-07-24T06:05:15.510Z,24.02
2018-07-24T06:07:43.884Z,24.12
2018-07-24T06:10:12.275Z,24.22
2018-07-24T06:12:40.645Z,24.32
2018-07-24T06:15:09.557Z,24.42
2018-07-24T06:17:37.953Z,24.51
2018-07-24T06:20:07.934Z,24.57
2018-07-24T06:22:36.329Z,24.66
2018-07-24T06:25:04.780Z,24.75
2018-07-24T06:27:33.202Z,24.87
2018-07-24T06:30:01.605Z,24.98
2018-07-24T06:32:29.983Z,25.08
2018-07-24T06:34:58.394Z,25.17
2018-07-24T06:37:26.771Z,25.27
2018-07-24T06:39:55.162Z,25.38
2018-07-24T06:42:23.530Z,25.48
2018-07-24T06:44:51.923Z,25.56
2018-07-24T06:47:20.304Z,25.65
2018-07-24T06:49:48.703Z,25.73
2018-07-24T06:52:17.078Z,25.79
2018-07-24T06:54:45.534Z,25.85
2018-07-24T06:57:13.898Z,25.93
2018-07-24T06:59:42.294Z,26.00
2018-07-24T07:02:10.738Z,26.05
2018-07-24T07:04:39.126Z,26.11
2018-07-24T07:07:07.512Z,26.16
2018-07-24T07:09:35.916Z,26.22
2018-07-24T07:12:04.297Z,26.28
2018-07-24T07:14:32.691Z,26.36
2018-07-24T07:17:01.060Z,26.42
2018-07-24T07:19:29.454Z,26.49
2018-07-24T07:21:57.845Z,26.58
2018-07-24T07:24:26.214Z,26.66
2018-07-24T07:26:54.601Z,26.74
2018-07-24T07:29:22.970Z,26.80
2018-07-24T07:31:51.359Z,26.88
2018-07-24T07:34:19.735Z,26.97
2018-07-24T07:36:48.183Z,27.06
2018-07-24T07:39:16.642Z,27.15
2018-07-24T07:41:44.989Z,27.22
2018-07-24T07:44:13.383Z,27.28
2018-07-24T07:46:41.802Z,27.36
2018-07-24T07:49:10.281Z,27.45
2018-07-24T07:51:38.670Z,27.53
2018-07-24T07:54:07.041Z,27.63
2018-07-24T07:56:35.435Z,27.69
2018-07-24T07:59:03.802Z,27.76
2018-07-24T08:01:32.195Z,27.84
2018-07-24T08:04:00.589Z,27.90
2018-07-24T08:06:29.043Z,27.99
2018-07-24T08:08:57.409Z,28.04
2018-07-24T08:11:25.802Z,28.11
2018-07-24T08:13:54.189Z,28.16
2018-07-24T08:16:22.574Z,28.20
2018-07-24T08:18:50.966Z,28.25
2018-07-24T08:21:19.353Z,28.27
2018-07-24T08:23:47.722Z,28.31
2018-07-24T08:26:16.115Z,28.39
2018-07-24T08:28:44.556Z,28.47
2018-07-24T08:31:12.958Z,28.54
2018-07-24T08:33:41.388Z,28.62
2018-07-24T08:36:09.757Z,28.75
2018-07-24T08:38:38.129Z,28.84
2018-07-24T08:41:06.539Z,28.97
2018-07-24T08:43:34.910Z,29.07
2018-07-24T08:46:03.327Z,29.19
2018-07-24T08:48:31.708Z,29.35
2018-07-24T08:51:00.103Z,29.44
2018-07-24T08:53:28.721Z,29.45
2018-07-24T08:55:56.893Z,29.42
2018-07-24T08:58:25.267Z,29.34
2018-07-24T09:00:53.659Z,29.28
2018-07-24T09:03:22.035Z,29.33
2018-07-24T09:05:50.460Z,29.38
2018-07-24T09:08:18.829Z,29.49
2018-07-24T09:10:47.277Z,29.60
2018-07-24T09:13:15.659Z,29.71
2018-07-24T09:15:44.025Z,29.76
2018-07-24T09:18:12.445Z,29.82
2018-07-24T09:20:40.839Z,29.87
2018-07-24T09:23:09.227Z,29.89
2018-07-24T09:25:37.604Z,29.84
2018-07-24T09:28:06.230Z,29.82
2018-07-24T09:30:34.642Z,29.79
2018-07-24T09:33:03.029Z,29.82
2018-07-24T09:35:31.410Z,29.89
2018-07-24T09:37:59.801Z,29.98
2018-07-24T09:40:28.213Z,30.08
2018-07-24T09:42:56.642Z,30.12
2018-07-24T09:45:25.028Z,30.10
2018-07-24T09:47:53.432Z,30.09
2018-07-24T09:50:21.801Z,30.01
2018-07-24T09:52:50.214Z,29.91
2018-07-24T09:55:18.646Z,29.83
2018-07-24T09:57:47.044Z,29.80
2018-07-24T10:00:15.415Z,29.86
2018-07-24T10:02:43.830Z,29.94
2018-07-24T10:05:12.198Z,30.05
2018-07-24T10:07:40.594Z,30.20
2018-07-24T10:10:08.971Z,30.36
2018-07-24T10:12:37.425Z,30.49
2018-07-24T10:15:06.051Z,30.57
2018-07-24T10:17:34.460Z,30.60
2018-07-24T10:20:02.862Z,30.69
2018-07-24T10:22:31.262Z,30.76
2018-07-24T10:24:59.662Z,30.83
2018-07-24T10:27:28.061Z,30.92
2018-07-24T10:29:56.449Z,30.97
2018-07-24T10:32:24.863Z,31.04
2018-07-24T10:34:53.342Z,31.10
2018-07-24T10:37:21.746Z,31.16
2018-07-24T10:39:50.121Z,31.21
2018-07-24T10:42:18.533Z,31.24
2018-07-24T10:44:46.910Z,31.25
2018-07-24T10:47:15.312Z,31.21
2018-07-24T10:49:43.701Z,31.17
2018-07-24T10:52:12.122Z,31.12
2018-07-24T10:54:40.490Z,31.11
2018-07-24T10:57:08.890Z,31.12
2018-07-24T10:59:37.267Z,31.15
2018-07-24T11:02:05.669Z,31.10
2018-07-24T11:04:34.079Z,31.12
2018-07-24T11:07:02.514Z,31.15
2018-07-24T11:09:30.886Z,31.19
2018-07-24T11:11:59.338Z,31.27
2018-07-24T11:14:27.738Z,31.34
2018-07-24T11:16:56.117Z,31.44
2018-07-24T11:19:24.552Z,31.53
2018-07-24T11:21:52.961Z,31.59
2018-07-24T11:24:21.392Z,31.60
2018-07-24T11:26:49.778Z,31.54
2018-07-24T11:29:18.177Z,31.52
2018-07-24T11:31:46.555Z,31.56
2018-07-24T11:34:14.973Z,31.60
2018-07-24T11:36:43.355Z,31.70
2018-07-24T11:41:52.139Z,31.93
2018-07-24T11:44:21.010Z,31.98
2018-07-24T11:46:49.394Z,32.07
2018-07-24T11:49:17.810Z,32.18
2018-07-24T11:51:46.203Z,32.28
2018-07-24T11:54:14.623Z,32.40
2018-07-24T11:56:43.002Z,32.43
2018-07-24T11:59:11.397Z,32.44
2018-07-24T12:01:39.767Z,32.44
2018-07-24T12:04:08.166Z,32.45
2018-07-24T12:06:36.552Z,32.40
2018-07-24T12:09:08.397Z,32.27
2018-07-24T12:11:36.793Z,32.11
2018-07-24T12:14:05.214Z,31.97
2018-07-24T12:16:33.602Z,31.96
2018-07-24T12:19:02.022Z,31.96
2018-07-24T12:21:30.406Z,31.82
2018-07-24T12:23:58.805Z,31.71
2018-07-24T12:26:27.177Z,31.64
2018-07-24T12:28:55.575Z,31.60
2018-07-24T12:31:23.959Z,31.61
2018-07-24T12:33:52.382Z,31.54
2018-07-24T12:36:20.754Z,31.50
2018-07-24T12:38:49.149Z,31.54
2018-07-24T12:41:17.525Z,31.58
2018-07-24T12:43:45.926Z,31.62
2018-07-24T12:46:14.416Z,31.70
2018-07-24T12:48:42.821Z,31.77
2018-07-24T12:51:11.234Z,31.83
2018-07-24T12:53:39.645Z,31.91
2018-07-24T12:56:08.056Z,32.01
2018-07-24T12:58:36.505Z,32.15
2018-07-24T13:01:04.898Z,32.31
2018-07-24T13:03:33.466Z,32.45
2018-07-24T13:06:01.877Z,32.53
2018-07-24T13:08:30.274Z,32.67
2018-07-24T13:10:58.699Z,32.79
2018-07-24T13:13:27.038Z,32.92
2018-07-24T13:15:55.438Z,33.03
2018-07-24T13:18:23.824Z,33.03
2018-07-24T13:20:52.238Z,33.00
2018-07-24T13:23:20.622Z,32.95
2018-07-24T13:25:49.103Z,32.86
2018-07-24T13:28:17.481Z,32.85
2018-07-24T13:30:45.890Z,32.87
2018-07-24T13:33:14.266Z,32.85
2018-07-24T13:35:42.685Z,32.81
2018-07-24T13:38:11.064Z,32.76
2018-07-24T13:40:39.575Z,32.69
2018-07-24T13:43:08.067Z,32.62
2018-07-24T13:45:36.471Z,32.63
2018-07-24T13:48:04.850Z,32.71
2018-07-24T13:50:33.251Z,32.80
2018-07-24T13:53:01.675Z,32.92
2018-07-24T13:55:30.145Z,33.04
2018-07-24T13:57:58.513Z,33.16
2018-07-24T14:00:26.901Z,33.28
2018-07-24T14:02:55.281Z,33.41
2018-07-24T14:05:23.673Z,33.41
2018-07-24T14:07:52.042Z,33.39
2018-07-24T14:10:20.598Z,33.34
2018-07-24T14:12:48.970Z,33.28
2018-07-24T14:15:17.362Z,33.21
2018-07-24T14:17:45.758Z,33.12
2018-07-24T14:20:14.196Z,32.97
2018-07-24T14:22:42.608Z,32.79
2018-07-24T14:25:11.019Z,32.64
2018-07-24T14:27:39.402Z,32.51
2018-07-24T14:30:08.317Z,32.42
2018-07-24T14:32:36.690Z,32.35
2018-07-24T14:35:05.095Z,32.31
2018-07-24T14:37:33.473Z,32.26
2018-07-24T14:40:01.889Z,32.22
2018-07-24T14:42:30.271Z,32.18
2018-07-24T14:44:58.671Z,32.13
2018-07-24T14:47:27.049Z,32.07
2018-07-24T14:49:55.454Z,32.01
2018-07-24T14:52:23.849Z,31.96
2018-07-24T14:54:52.281Z,31.89
2018-07-24T14:57:20.656Z,31.83
2018-07-24T14:59:49.059Z,31.77
2018-07-24T15:02:17.450Z,31.69
2018-07-24T15:04:45.905Z,31.63
2018-07-24T15:07:14.262Z,31.56
2018-07-24T15:09:42.630Z,31.56
2018-07-24T15:12:11.136Z,31.55
2018-07-24T15:14:39.619Z,31.54
2018-07-24T15:17:08.028Z,31.54
2018-07-24T15:19:36.454Z,31.56
2018-07-24T15:22:04.867Z,31.60
2018-07-24T15:24:33.246Z,31.75
2018-07-24T15:27:01.660Z,31.91
2018-07-24T15:29:30.677Z,32.09
2018-07-24T15:31:59.092Z,32.24
2018-07-24T15:34:27.653Z,32.33
2018-07-24T15:36:55.910Z,32.45
2018-07-24T15:39:24.282Z,32.60
2018-07-24T15:41:52.669Z,32.70
2018-07-24T15:44:21.193Z,32.73
2018-07-24T15:46:49.636Z,32.74
2018-07-24T15:49:18.011Z,32.71
2018-07-24T15:51:46.431Z,32.65
2018-07-24T15:54:14.815Z,32.50
2018-07-24T15:56:43.218Z,32.37
2018-07-24T15:59:11.686Z,32.34
2018-07-24T16:01:40.093Z,32.33
2018-07-24T16:04:08.478Z,32.34
2018-07-24T16:06:36.896Z,32.34
2018-07-24T16:09:08.303Z,32.35
2018-07-24T16:11:36.708Z,32.31
2018-07-24T16:14:05.116Z,32.23
2018-07-24T16:16:33.519Z,32.20
2018-07-24T16:19:02.090Z,32.21
2018-07-24T16:21:30.485Z,32.17
2018-07-24T16:23:58.877Z,32.14
2018-07-24T16:26:27.317Z,32.05
2018-07-24T16:28:55.685Z,31.97
2018-07-24T16:31:24.094Z,31.89
2018-07-24T16:33:52.469Z,31.83
2018-07-24T16:36:20.861Z,31.84
2018-07-24T16:38:49.247Z,31.95
2018-07-24T16:41:17.661Z,32.10
2018-07-24T16:43:46.051Z,32.25
2018-07-24T16:46:14.462Z,32.41
2018-07-24T16:48:42.842Z,32.54
2018-07-24T16:51:11.250Z,32.64
2018-07-24T16:53:39.631Z,32.74
2018-07-24T16:56:08.047Z,32.84
2018-07-24T16:58:36.439Z,32.90
2018-07-24T17:01:04.856Z,32.92
2018-07-24T17:03:33.229Z,32.97
2018-07-24T17:06:01.630Z,32.97
2018-07-24T17:08:30.014Z,32.99
2018-07-24T17:10:58.394Z,33.06
2018-07-24T17:13:26.806Z,33.14
2018-07-24T17:15:55.182Z,33.20
2018-07-24T17:18:23.586Z,33.28
2018-07-24T17:20:51.978Z,33.31
2018-07-24T17:23:20.414Z,33.33
2018-07-24T17:25:49.047Z,33.31
2018-07-24T17:28:17.458Z,33.23
2018-07-24T17:30:45.837Z,33.09
2018-07-24T17:33:14.237Z,33.04
2018-07-24T17:35:42.696Z,32.90
2018-07-24T17:38:11.074Z,32.77
2018-07-24T17:40:39.549Z,32.58
2018-07-24T17:43:07.990Z,32.31
2018-07-24T17:45:36.409Z,32.04
2018-07-24T17:48:04.805Z,31.72
2018-07-24T17:50:33.242Z,31.47
2018-07-24T17:53:01.616Z,31.27
2018-07-24T17:55:29.999Z,31.06
2018-07-24T17:57:58.393Z,30.83
2018-07-24T18:00:27.056Z,30.61
2018-07-24T18:02:55.570Z,30.40
2018-07-24T18:05:23.943Z,30.22
2018-07-24T18:07:52.349Z,30.04
2018-07-24T18:10:20.790Z,29.85
2018-07-24T18:12:49.175Z,29.74
2018-07-24T18:15:17.548Z,29.64
2018-07-24T18:17:45.933Z,29.56
2018-07-24T18:20:14.426Z,29.48
2018-07-24T18:22:42.831Z,29.40
2018-07-24T18:25:11.196Z,29.33
2018-07-24T18:27:39.616Z,29.25
2018-07-24T18:30:07.994Z,29.17
2018-07-24T18:32:36.393Z,29.09
2018-07-24T18:35:04.766Z,29.01
2018-07-24T18:37:33.167Z,28.95
2018-07-24T18:40:01.542Z,28.89
2018-07-24T18:42:29.948Z,28.81
2018-07-24T18:44:58.381Z,28.72
2018-07-24T18:47:26.758Z,28.64
2018-07-24T18:49:55.134Z,28.56
2018-07-24T18:52:23.523Z,28.49
2018-07-24T18:54:51.933Z,28.43
2018-07-24T18:57:20.339Z,28.34
2018-07-24T18:59:48.722Z,28.25
2018-07-24T19:02:17.117Z,28.17
2018-07-24T19:04:45.492Z,28.10
2018-07-24T19:07:13.877Z,27.99
2018-07-24T19:09:42.238Z,27.90
2018-07-24T19:12:10.738Z,27.83
2018-07-24T19:14:39.151Z,27.76
2018-07-24T19:17:07.582Z,27.70
2018-07-24T19:19:35.999Z,27.63
2018-07-24T19:22:04.393Z,27.55
2018-07-24T19:24:32.787Z,27.48
2018-07-24T19:27:01.177Z,27.42
2018-07-24T19:29:29.570Z,27.33
2018-07-24T19:31:57.941Z,27.25
2018-07-24T19:34:26.355Z,27.18
2018-07-24T19:36:54.744Z,27.12
2018-07-24T19:39:23.149Z,27.07
2018-07-24T19:41:51.514Z,27.01
2018-07-24T19:44:19.906Z,26.96
2018-07-24T19:46:48.269Z,26.89
2018-07-24T19:49:16.674Z,26.83
2018-07-24T19:51:45.133Z,26.77
2018-07-24T19:54:13.536Z,26.68
2018-07-24T19:56:41.901Z,26.59
2018-07-24T19:59:10.301Z,26.51
2018-07-24T20:01:38.691Z,26.44
2018-07-24T20:04:07.091Z,26.38
2018-07-24T20:06:35.541Z,26.30
2018-07-24T20:09:06.003Z,26.25
2018-07-24T20:11:34.374Z,26.22
2018-07-24T20:14:02.766Z,26.18
2018-07-24T20:16:31.150Z,26.14
2018-07-24T20:18:59.577Z,26.10
2018-07-24T20:21:27.969Z,26.06
2018-07-24T20:23:56.353Z,26.03
2018-07-24T20:26:24.719Z,26.00
2018-07-24T20:28:53.172Z,25.99
2018-07-24T20:31:21.513Z,25.95
2018-07-24T20:33:49.915Z,25.93
2018-07-24T20:36:18.286Z,25.91
2018-07-24T20:38:46.714Z,25.89
2018-07-24T20:41:15.083Z,25.83
2018-07-24T20:43:43.480Z,25.79
2018-07-24T20:46:11.858Z,25.75
2018-07-24T20:48:40.261Z,25.67
2018-07-24T20:51:08.723Z,25.59
2018-07-24T20:53:37.268Z,25.55
2018-07-24T20:56:05.711Z,25.51
2018-07-24T20:58:34.369Z,25.48
2018-07-24T21:01:02.743Z,25.46
2018-07-24T21:03:31.183Z,25.42
2018-07-24T21:05:59.597Z,25.40
2018-07-24T21:08:28.115Z,25.38
2018-07-24T21:10:56.489Z,25.36
2018-07-24T21:13:24.862Z,25.31
2018-07-24T21:15:53.253Z,25.25
2018-07-24T21:18:21.627Z,25.19
2018-07-24T21:20:50.044Z,25.15
2018-07-24T21:23:18.454Z,25.10
2018-07-24T21:25:46.846Z,25.05
2018-07-24T21:28:15.217Z,24.98
2018-07-24T21:30:43.613Z,24.92
2018-07-24T21:33:11.981Z,24.87
2018-07-24T21:35:40.374Z,24.85
2018-07-24T21:38:08.746Z,24.81
2018-07-24T21:40:37.147Z,24.76
2018-07-24T21:43:05.521Z,24.70
2018-07-24T21:45:34.032Z,24.66
2018-07-24T21:48:02.398Z,24.59
2018-07-24T21:50:30.789Z,24.53
2018-07-24T21:52:59.166Z,24.48
2018-07-24T21:55:27.570Z,24.43
2018-07-24T21:57:56.001Z,24.39
2018-07-24T22:00:24.454Z,24.32
2018-07-24T22:02:52.813Z,24.27
2018-07-24T22:05:21.217Z,24.24
2018-07-24T22:07:49.595Z,24.19
2018-07-24T22:10:22.478Z,24.13
2018-07-24T22:12:51.753Z,24.08
2018-07-24T22:15:25.278Z,24.00
2018-07-24T22:17:54.031Z,23.92
2018-07-24T22:20:22.758Z,23.86
2018-07-24T22:22:51.618Z,23.79
2018-07-24T22:25:20.010Z,23.74
2018-07-24T22:27:48.377Z,23.69
2018-07-24T22:30:16.779Z,23.66
2018-07-24T22:32:45.161Z,23.62
2018-07-24T22:35:13.555Z,23.60
2018-07-24T22:37:41.939Z,23.57
2018-07-24T22:40:11.629Z,23.55
2018-07-24T22:42:40.038Z,23.53
2018-07-24T22:45:08.793Z,23.48
2018-07-24T22:47:37.253Z,23.47
2018-07-24T22:50:06.415Z,23.46
2018-07-24T22:52:34.777Z,23.44
2018-07-24T22:55:03.179Z,23.41
2018-07-24T22:57:31.546Z,23.38
2018-07-24T22:59:59.933Z,23.34
2018-07-24T23:02:28.298Z,23.28
2018-07-24T23:04:56.693Z,23.23
2018-07-24T23:07:25.071Z,23.19
2018-07-24T23:09:53.466Z,23.13
2018-07-24T23:12:21.840Z,23.07
2018-07-24T23:14:50.238Z,23.01
2018-07-24T23:17:18.610Z,22.96
2018-07-24T23:19:46.997Z,22.91
2018-07-24T23:22:15.406Z,22.86
2018-07-24T23:24:44.106Z,22.82
2018-07-24T23:27:12.505Z,22.79
2018-07-24T23:29:40.877Z,22.76
2018-07-24T23:32:09.261Z,22.73
2018-07-24T23:34:37.633Z,22.70
2018-07-24T23:37:06.042Z,22.64
2018-07-24T23:39:34.425Z,22.61
2018-07-24T23:42:02.817Z,22.59
2018-07-24T23:44:31.184Z,22.55
2018-07-24T23:46:59.569Z,22.52
2018-07-24T23:49:27.934Z,22.50
2018-07-24T23:51:56.329Z,22.47
2018-07-24T23:54:24.705Z,22.43
2018-07-24T23:56:53.158Z,22.41
2018-07-24T23:59:21.503Z,22.37
